sensor_id;sensor_type;location;lat;lon;timestamp;P1;durP1;ratioP1;P2;durP2;ratioP2
71914;SDS011;60387;49.994;14.660;2022-08-19T00:02:08;7.13;;;3.17;;
71914;SDS011;60387;49.994;14.660;2022-08-19T00:04:41;9.17;;;3.40;;
71914;SDS011;60387;49.994;14.660;2022-08-19T00:07:15;7.60;;;3.00;;
71914;SDS011;60387;49.994;14.660;2022-08-19T00:09:48;6.90;;;3.50;;
71914;SDS011;60387;49.994;14.660;2022-08-19T00:12:21;9.90;;;3.27;;
71914;SDS011;60387;49.994;14.660;2022-08-19T00:14:55;9.80;;;3.73;;
71914;SDS011;60387;49.994;14.660;2022-08-19T00:17:28;8.43;;;3.50;;
71914;SDS011;60387;49.994;14.660;2022-08-19T00:20:01;8.83;;;3.47;;
71914;SDS011;60387;49.994;14.660;2022-08-19T00:22:36;7.90;;;3.60;;
71914;SDS011;60387;49.994;14.660;2022-08-19T00:25:10;7.30;;;3.40;;
71914;SDS011;60387;49.994;14.660;2022-08-19T00:27:44;8.30;;;3.70;;
71914;SDS011;60387;49.994;14.660;2022-08-19T00:30:17;7.47;;;3.83;;
71914;SDS011;60387;49.994;14.660;2022-08-19T00:32:51;9.05;;;3.80;;
71914;SDS011;60387;49.994;14.660;2022-08-19T00:35:24;8.10;;;4.00;;
71914;SDS011;60387;49.994;14.660;2022-08-19T00:37:58;11.17;;;4.00;;
71914;SDS011;60387;49.994;14.660;2022-08-19T00:40:32;8.57;;;4.60;;
71914;SDS011;60387;49.994;14.660;2022-08-19T00:43:10;9.20;;;3.97;;
71914;SDS011;60387;49.994;14.660;2022-08-19T00:45:43;9.55;;;4.18;;
71914;SDS011;60387;49.994;14.660;2022-08-19T00:48:17;8.43;;;4.00;;
71914;SDS011;60387;49.994;14.660;2022-08-19T00:50:52;10.07;;;4.43;;
71914;SDS011;60387;49.994;14.660;2022-08-19T00:53:27;10.07;;;4.55;;
71914;SDS011;60387;49.994;14.660;2022-08-19T00:56:03;9.55;;;4.20;;
71914;SDS011;60387;49.994;14.660;2022-08-19T00:58:36;9.37;;;4.00;;
71914;SDS011;60387;49.994;14.660;2022-08-19T01:01:10;10.10;;;4.40;;
71914;SDS011;60387;49.994;14.660;2022-08-19T01:03:43;10.05;;;4.07;;
71914;SDS011;60387;49.994;14.660;2022-08-19T01:06:16;9.37;;;4.03;;
71914;SDS011;60387;49.994;14.660;2022-08-19T01:08:50;8.67;;;3.73;;
71914;SDS011;60387;49.994;14.660;2022-08-19T01:11:23;8.73;;;4.20;;
71914;SDS011;60387;49.994;14.660;2022-08-19T01:13:57;10.48;;;4.95;;
71914;SDS011;60387;49.994;14.660;2022-08-19T01:16:31;8.53;;;4.23;;
71914;SDS011;60387;49.994;14.660;2022-08-19T01:19:15;8.38;;;4.22;;
71914;SDS011;60387;49.994;14.660;2022-08-19T01:21:58;9.43;;;4.60;;
71914;SDS011;60387;49.994;14.660;2022-08-19T01:24:45;9.90;;;4.40;;
71914;SDS011;60387;49.994;14.660;2022-08-19T01:27:18;8.43;;;4.27;;
71914;SDS011;60387;49.994;14.660;2022-08-19T01:29:51;8.83;;;4.47;;
71914;SDS011;60387;49.994;14.660;2022-08-19T01:32:25;9.00;;;4.50;;
71914;SDS011;60387;49.994;14.660;2022-08-19T01:34:58;9.13;;;4.50;;
71914;SDS011;60387;49.994;14.660;2022-08-19T01:37:41;10.43;;;4.63;;
71914;SDS011;60387;49.994;14.660;2022-08-19T01:40:26;9.60;;;4.90;;
71914;SDS011;60387;49.994;14.660;2022-08-19T01:43:02;8.77;;;4.35;;
71914;SDS011;60387;49.994;14.660;2022-08-19T01:45:36;10.95;;;4.72;;
71914;SDS011;60387;49.994;14.660;2022-08-19T01:48:10;9.40;;;4.73;;
71914;SDS011;60387;49.994;14.660;2022-08-19T01:50:43;8.40;;;4.60;;
71914;SDS011;60387;49.994;14.660;2022-08-19T01:53:17;10.13;;;5.07;;
71914;SDS011;60387;49.994;14.660;2022-08-19T01:55:50;9.27;;;4.60;;
71914;SDS011;60387;49.994;14.660;2022-08-19T01:58:26;10.17;;;5.47;;
71914;SDS011;60387;49.994;14.660;2022-08-19T02:01:04;9.65;;;5.50;;
71914;SDS011;60387;49.994;14.660;2022-08-19T02:03:39;10.57;;;5.18;;
71914;SDS011;60387;49.994;14.660;2022-08-19T02:06:12;10.03;;;5.53;;
71914;SDS011;60387;49.994;14.660;2022-08-19T02:08:46;12.57;;;5.70;;
71914;SDS011;60387;49.994;14.660;2022-08-19T02:11:21;10.67;;;5.70;;
71914;SDS011;60387;49.994;14.660;2022-08-19T02:13:57;11.93;;;6.13;;
71914;SDS011;60387;49.994;14.660;2022-08-19T02:16:31;10.03;;;5.97;;
71914;SDS011;60387;49.994;14.660;2022-08-19T02:19:04;10.53;;;6.30;;
71914;SDS011;60387;49.994;14.660;2022-08-19T02:21:38;11.43;;;5.97;;
71914;SDS011;60387;49.994;14.660;2022-08-19T02:24:11;11.10;;;6.07;;
71914;SDS011;60387;49.994;14.660;2022-08-19T02:26:44;13.63;;;6.20;;
71914;SDS011;60387;49.994;14.660;2022-08-19T02:29:18;11.43;;;6.03;;
71914;SDS011;60387;49.994;14.660;2022-08-19T02:31:51;11.67;;;6.63;;
71914;SDS011;60387;49.994;14.660;2022-08-19T02:34:24;14.07;;;6.50;;
71914;SDS011;60387;49.994;14.660;2022-08-19T02:36:58;12.30;;;6.60;;
71914;SDS011;60387;49.994;14.660;2022-08-19T02:39:31;12.23;;;6.33;;
71914;SDS011;60387;49.994;14.660;2022-08-19T02:42:05;11.60;;;6.37;;
71914;SDS011;60387;49.994;14.660;2022-08-19T02:44:38;11.43;;;6.55;;
71914;SDS011;60387;49.994;14.660;2022-08-19T02:47:11;12.43;;;5.77;;
71914;SDS011;60387;49.994;14.660;2022-08-19T02:49:45;10.50;;;5.60;;
71914;SDS011;60387;49.994;14.660;2022-08-19T02:52:18;14.07;;;6.07;;
71914;SDS011;60387;49.994;14.660;2022-08-19T02:54:52;10.73;;;5.43;;
71914;SDS011;60387;49.994;14.660;2022-08-19T02:57:25;15.57;;;6.07;;
71914;SDS011;60387;49.994;14.660;2022-08-19T02:59:59;11.95;;;5.57;;
71914;SDS011;60387;49.994;14.660;2022-08-19T03:02:32;9.73;;;5.33;;
71914;SDS011;60387;49.994;14.660;2022-08-19T03:05:07;11.05;;;5.53;;
71914;SDS011;60387;49.994;14.660;2022-08-19T03:07:41;13.97;;;6.20;;
71914;SDS011;60387;49.994;14.660;2022-08-19T03:10:14;10.82;;;6.03;;
71914;SDS011;60387;49.994;14.660;2022-08-19T03:12:48;14.37;;;6.07;;
71914;SDS011;60387;49.994;14.660;2022-08-19T03:15:21;11.97;;;6.57;;
71914;SDS011;60387;49.994;14.660;2022-08-19T03:17:54;11.63;;;6.53;;
71914;SDS011;60387;49.994;14.660;2022-08-19T03:20:28;15.03;;;7.60;;
71914;SDS011;60387;49.994;14.660;2022-08-19T03:23:01;12.43;;;7.50;;
71914;SDS011;60387;49.994;14.660;2022-08-19T03:25:41;15.47;;;8.83;;
71914;SDS011;60387;49.994;14.660;2022-08-19T03:28:16;14.20;;;8.32;;
71914;SDS011;60387;49.994;14.660;2022-08-19T03:31:01;14.00;;;8.63;;
71914;SDS011;60387;49.994;14.660;2022-08-19T03:33:40;13.87;;;8.27;;
71914;SDS011;60387;49.994;14.660;2022-08-19T03:36:15;16.88;;;9.30;;
71914;SDS011;60387;49.994;14.660;2022-08-19T03:38:51;15.13;;;8.68;;
71914;SDS011;60387;49.994;14.660;2022-08-19T03:41:29;15.37;;;9.30;;
71914;SDS011;60387;49.994;14.660;2022-08-19T03:44:04;19.88;;;10.65;;
71914;SDS011;60387;49.994;14.660;2022-08-19T03:46:37;17.27;;;10.57;;
71914;SDS011;60387;49.994;14.660;2022-08-19T03:49:11;18.17;;;11.27;;
71914;SDS011;60387;49.994;14.660;2022-08-19T03:51:44;17.80;;;11.00;;
71914;SDS011;60387;49.994;14.660;2022-08-19T03:54:20;17.10;;;10.48;;
71914;SDS011;60387;49.994;14.660;2022-08-19T03:56:55;17.83;;;10.80;;
71914;SDS011;60387;49.994;14.660;2022-08-19T03:59:31;18.20;;;11.55;;
71914;SDS011;60387;49.994;14.660;2022-08-19T04:02:08;20.60;;;11.68;;
71914;SDS011;60387;49.994;14.660;2022-08-19T04:04:43;18.85;;;11.35;;
71914;SDS011;60387;49.994;14.660;2022-08-19T04:07:16;19.60;;;12.30;;
71914;SDS011;60387;49.994;14.660;2022-08-19T04:09:49;19.67;;;12.33;;
71914;SDS011;60387;49.994;14.660;2022-08-19T04:12:23;19.23;;;12.37;;
71914;SDS011;60387;49.994;14.660;2022-08-19T04:14:56;20.90;;;13.10;;
71914;SDS011;60387;49.994;14.660;2022-08-19T04:17:30;22.57;;;14.07;;
71914;SDS011;60387;49.994;14.660;2022-08-19T04:20:03;21.15;;;13.77;;
71914;SDS011;60387;49.994;14.660;2022-08-19T04:22:37;23.97;;;12.93;;
71914;SDS011;60387;49.994;14.660;2022-08-19T04:25:10;21.40;;;13.03;;
71914;SDS011;60387;49.994;14.660;2022-08-19T04:27:43;20.03;;;13.33;;
71914;SDS011;60387;49.994;14.660;2022-08-19T04:30:16;21.33;;;13.17;;
71914;SDS011;60387;49.994;14.660;2022-08-19T04:32:50;21.30;;;12.73;;
71914;SDS011;60387;49.994;14.660;2022-08-19T04:35:23;20.55;;;13.07;;
71914;SDS011;60387;49.994;14.660;2022-08-19T04:37:56;21.83;;;13.67;;
71914;SDS011;60387;49.994;14.660;2022-08-19T04:40:30;23.80;;;13.47;;
71914;SDS011;60387;49.994;14.660;2022-08-19T04:43:03;19.70;;;12.47;;
71914;SDS011;60387;49.994;14.660;2022-08-19T04:45:36;20.83;;;12.70;;
71914;SDS011;60387;49.994;14.660;2022-08-19T04:48:10;22.03;;;13.43;;
71914;SDS011;60387;49.994;14.660;2022-08-19T04:50:44;20.48;;;13.43;;
71914;SDS011;60387;49.994;14.660;2022-08-19T04:53:17;20.27;;;12.90;;
71914;SDS011;60387;49.994;14.660;2022-08-19T04:55:50;19.37;;;12.67;;
71914;SDS011;60387;49.994;14.660;2022-08-19T04:58:24;17.07;;;11.10;;
71914;SDS011;60387;49.994;14.660;2022-08-19T05:00:59;16.58;;;10.65;;
71914;SDS011;60387;49.994;14.660;2022-08-19T05:03:32;17.37;;;11.40;;
71914;SDS011;60387;49.994;14.660;2022-08-19T05:06:06;17.63;;;11.30;;
71914;SDS011;60387;49.994;14.660;2022-08-19T05:08:42;15.57;;;10.80;;
71914;SDS011;60387;49.994;14.660;2022-08-19T05:11:17;15.15;;;10.25;;
71914;SDS011;60387;49.994;14.660;2022-08-19T05:13:52;16.90;;;10.00;;
71914;SDS011;60387;49.994;14.660;2022-08-19T05:16:26;17.37;;;10.07;;
71914;SDS011;60387;49.994;14.660;2022-08-19T05:19:00;16.67;;;10.27;;
71914;SDS011;60387;49.994;14.660;2022-08-19T05:21:34;16.50;;;9.85;;
71914;SDS011;60387;49.994;14.660;2022-08-19T05:24:09;17.83;;;10.55;;
71914;SDS011;60387;49.994;14.660;2022-08-19T05:26:43;17.90;;;10.80;;
71914;SDS011;60387;49.994;14.660;2022-08-19T05:29:19;14.13;;;9.73;;
71914;SDS011;60387;49.994;14.660;2022-08-19T05:31:54;15.90;;;9.77;;
71914;SDS011;60387;49.994;14.660;2022-08-19T05:34:28;14.93;;;9.30;;
71914;SDS011;60387;49.994;14.660;2022-08-19T05:37:01;16.60;;;10.43;;
71914;SDS011;60387;49.994;14.660;2022-08-19T05:39:36;16.27;;;9.70;;
71914;SDS011;60387;49.994;14.660;2022-08-19T05:42:11;15.70;;;9.43;;
71914;SDS011;60387;49.994;14.660;2022-08-19T05:44:44;16.73;;;10.18;;
71914;SDS011;60387;49.994;14.660;2022-08-19T05:47:18;16.57;;;10.70;;
71914;SDS011;60387;49.994;14.660;2022-08-19T05:49:52;21.70;;;12.85;;
71914;SDS011;60387;49.994;14.660;2022-08-19T05:52:25;17.17;;;9.33;;
71914;SDS011;60387;49.994;14.660;2022-08-19T05:54:59;15.37;;;8.60;;
71914;SDS011;60387;49.994;14.660;2022-08-19T05:57:32;14.53;;;7.90;;
71914;SDS011;60387;49.994;14.660;2022-08-19T06:00:06;12.50;;;8.07;;
71914;SDS011;60387;49.994;14.660;2022-08-19T06:02:40;13.75;;;8.27;;
71914;SDS011;60387;49.994;14.660;2022-08-19T06:05:13;12.80;;;7.93;;
71914;SDS011;60387;49.994;14.660;2022-08-19T06:07:47;12.40;;;8.13;;
71914;SDS011;60387;49.994;14.660;2022-08-19T06:10:20;13.93;;;8.13;;
71914;SDS011;60387;49.994;14.660;2022-08-19T06:12:53;18.50;;;10.57;;
71914;SDS011;60387;49.994;14.660;2022-08-19T06:15:27;21.07;;;12.93;;
71914;SDS011;60387;49.994;14.660;2022-08-19T06:18:00;20.47;;;13.03;;
71914;SDS011;60387;49.994;14.660;2022-08-19T06:20:33;20.17;;;12.73;;
71914;SDS011;60387;49.994;14.660;2022-08-19T06:23:07;21.00;;;12.90;;
71914;SDS011;60387;49.994;14.660;2022-08-19T06:25:40;22.53;;;13.03;;
71914;SDS011;60387;49.994;14.660;2022-08-19T06:28:13;20.67;;;12.70;;
71914;SDS011;60387;49.994;14.660;2022-08-19T06:30:46;19.43;;;12.47;;
71914;SDS011;60387;49.994;14.660;2022-08-19T06:33:20;20.07;;;12.43;;
71914;SDS011;60387;49.994;14.660;2022-08-19T06:35:53;22.07;;;13.33;;
71914;SDS011;60387;49.994;14.660;2022-08-19T06:38:26;19.67;;;12.57;;
71914;SDS011;60387;49.994;14.660;2022-08-19T06:41:03;18.53;;;12.20;;
71914;SDS011;60387;49.994;14.660;2022-08-19T06:43:37;18.17;;;12.43;;
71914;SDS011;60387;49.994;14.660;2022-08-19T06:46:11;19.07;;;12.57;;
71914;SDS011;60387;49.994;14.660;2022-08-19T06:48:47;18.92;;;12.52;;
71914;SDS011;60387;49.994;14.660;2022-08-19T06:51:21;20.63;;;12.43;;
71914;SDS011;60387;49.994;14.660;2022-08-19T06:53:55;20.15;;;13.10;;
71914;SDS011;60387;49.994;14.660;2022-08-19T06:56:29;17.77;;;12.33;;
71914;SDS011;60387;49.994;14.660;2022-08-19T06:59:07;20.35;;;12.68;;
71914;SDS011;60387;49.994;14.660;2022-08-19T07:01:45;18.75;;;12.98;;
71914;SDS011;60387;49.994;14.660;2022-08-19T07:04:25;17.40;;;12.30;;
71914;SDS011;60387;49.994;14.660;2022-08-19T07:07:10;19.88;;;11.93;;
71914;SDS011;60387;49.994;14.660;2022-08-19T07:09:45;17.20;;;11.82;;
71914;SDS011;60387;49.994;14.660;2022-08-19T07:12:18;17.70;;;12.07;;
71914;SDS011;60387;49.994;14.660;2022-08-19T07:14:51;16.57;;;11.67;;
71914;SDS011;60387;49.994;14.660;2022-08-19T07:17:25;18.47;;;11.87;;
71914;SDS011;60387;49.994;14.660;2022-08-19T07:19:58;18.70;;;12.47;;
71914;SDS011;60387;49.994;14.660;2022-08-19T07:22:32;20.97;;;12.80;;
71914;SDS011;60387;49.994;14.660;2022-08-19T07:25:06;18.65;;;12.45;;
71914;SDS011;60387;49.994;14.660;2022-08-19T07:27:41;17.83;;;12.30;;
71914;SDS011;60387;49.994;14.660;2022-08-19T07:30:14;18.10;;;11.33;;
71914;SDS011;60387;49.994;14.660;2022-08-19T07:32:47;15.73;;;10.60;;
71914;SDS011;60387;49.994;14.660;2022-08-19T07:35:21;16.83;;;11.80;;
71914;SDS011;60387;49.994;14.660;2022-08-19T07:37:54;17.03;;;11.40;;
71914;SDS011;60387;49.994;14.660;2022-08-19T07:40:28;16.27;;;11.07;;
71914;SDS011;60387;49.994;14.660;2022-08-19T07:43:01;16.77;;;12.03;;
71914;SDS011;60387;49.994;14.660;2022-08-19T07:45:35;15.95;;;11.07;;
71914;SDS011;60387;49.994;14.660;2022-08-19T07:48:08;16.73;;;11.87;;
71914;SDS011;60387;49.994;14.660;2022-08-19T07:50:41;14.73;;;11.13;;
71914;SDS011;60387;49.994;14.660;2022-08-19T07:53:15;14.68;;;10.80;;
71914;SDS011;60387;49.994;14.660;2022-08-19T07:55:48;16.43;;;11.07;;
71914;SDS011;60387;49.994;14.660;2022-08-19T07:58:22;15.70;;;10.60;;
71914;SDS011;60387;49.994;14.660;2022-08-19T08:00:56;16.37;;;10.93;;
71914;SDS011;60387;49.994;14.660;2022-08-19T08:03:29;16.43;;;11.30;;
71914;SDS011;60387;49.994;14.660;2022-08-19T08:06:02;16.47;;;10.90;;
71914;SDS011;60387;49.994;14.660;2022-08-19T08:08:36;15.03;;;10.77;;
71914;SDS011;60387;49.994;14.660;2022-08-19T08:11:09;15.27;;;10.97;;
71914;SDS011;60387;49.994;14.660;2022-08-19T08:13:42;15.77;;;11.23;;
71914;SDS011;60387;49.994;14.660;2022-08-19T08:16:16;17.25;;;11.40;;
71914;SDS011;60387;49.994;14.660;2022-08-19T08:18:49;15.87;;;12.03;;
71914;SDS011;60387;49.994;14.660;2022-08-19T08:21:23;16.80;;;12.53;;
71914;SDS011;60387;49.994;14.660;2022-08-19T08:23:56;17.77;;;12.13;;
71914;SDS011;60387;49.994;14.660;2022-08-19T08:26:29;17.93;;;12.70;;
71914;SDS011;60387;49.994;14.660;2022-08-19T08:29:02;17.03;;;11.80;;
71914;SDS011;60387;49.994;14.660;2022-08-19T08:31:36;15.48;;;11.57;;
71914;SDS011;60387;49.994;14.660;2022-08-19T08:34:11;18.87;;;12.57;;
71914;SDS011;60387;49.994;14.660;2022-08-19T08:36:46;17.50;;;12.15;;
71914;SDS011;60387;49.994;14.660;2022-08-19T08:39:20;19.58;;;12.73;;
71914;SDS011;60387;49.994;14.660;2022-08-19T08:42:36;17.38;;;12.48;;
71914;SDS011;60387;49.994;14.660;2022-08-19T08:45:05;18.23;;;11.85;;
71914;SDS011;60387;49.994;14.660;2022-08-19T08:47:47;17.83;;;11.20;;
71914;SDS011;60387;49.994;14.660;2022-08-19T08:50:29;16.90;;;11.80;;
71914;SDS011;60387;49.994;14.660;2022-08-19T08:53:09;17.35;;;11.80;;
71914;SDS011;60387;49.994;14.660;2022-08-19T08:55:43;17.40;;;11.80;;
71914;SDS011;60387;49.994;14.660;2022-08-19T08:58:24;20.37;;;11.00;;
71914;SDS011;60387;49.994;14.660;2022-08-19T09:01:01;16.17;;;10.45;;
71914;SDS011;60387;49.994;14.660;2022-08-19T09:03:36;16.10;;;11.00;;
71914;SDS011;60387;49.994;14.660;2022-08-19T09:06:17;16.30;;;11.38;;
71914;SDS011;60387;49.994;14.660;2022-08-19T09:14:34;14.43;;;10.07;;
71914;SDS011;60387;49.994;14.660;2022-08-19T09:17:12;15.73;;;10.73;;
71914;SDS011;60387;49.994;14.660;2022-08-19T09:19:51;16.67;;;10.40;;
71914;SDS011;60387;49.994;14.660;2022-08-19T09:22:25;17.95;;;11.38;;
71914;SDS011;60387;49.994;14.660;2022-08-19T09:24:58;15.57;;;10.80;;
71914;SDS011;60387;49.994;14.660;2022-08-19T09:27:32;14.20;;;10.13;;
71914;SDS011;60387;49.994;14.660;2022-08-19T09:30:13;14.73;;;10.63;;
71914;SDS011;60387;49.994;14.660;2022-08-19T09:32:49;15.63;;;10.50;;
71914;SDS011;60387;49.994;14.660;2022-08-19T09:35:24;14.57;;;10.55;;
71914;SDS011;60387;49.994;14.660;2022-08-19T09:37:59;17.60;;;11.43;;
71914;SDS011;60387;49.994;14.660;2022-08-19T09:40:32;15.70;;;10.45;;
71914;SDS011;60387;49.994;14.660;2022-08-19T09:43:06;14.40;;;11.17;;
71914;SDS011;60387;49.994;14.660;2022-08-19T09:45:39;14.50;;;10.80;;
71914;SDS011;60387;49.994;14.660;2022-08-19T09:48:12;16.57;;;11.60;;
71914;SDS011;60387;49.994;14.660;2022-08-19T09:50:46;17.73;;;11.37;;
71914;SDS011;60387;49.994;14.660;2022-08-19T09:53:19;15.63;;;10.97;;
71914;SDS011;60387;49.994;14.660;2022-08-19T09:55:54;14.27;;;9.93;;
71914;SDS011;60387;49.994;14.660;2022-08-19T09:58:28;18.63;;;10.70;;
71914;SDS011;60387;49.994;14.660;2022-08-19T10:01:02;15.45;;;10.50;;
71914;SDS011;60387;49.994;14.660;2022-08-19T10:03:36;16.00;;;10.98;;
71914;SDS011;60387;49.994;14.660;2022-08-19T10:06:09;14.70;;;10.03;;
71914;SDS011;60387;49.994;14.660;2022-08-19T10:08:43;14.50;;;10.20;;
71914;SDS011;60387;49.994;14.660;2022-08-19T10:11:17;14.30;;;10.40;;
71914;SDS011;60387;49.994;14.660;2022-08-19T10:13:52;15.90;;;10.65;;
71914;SDS011;60387;49.994;14.660;2022-08-19T10:16:25;15.07;;;10.38;;
71914;SDS011;60387;49.994;14.660;2022-08-19T10:18:58;14.40;;;10.60;;
71914;SDS011;60387;49.994;14.660;2022-08-19T10:21:32;18.17;;;10.57;;
71914;SDS011;60387;49.994;14.660;2022-08-19T10:24:06;13.65;;;10.18;;
71914;SDS011;60387;49.994;14.660;2022-08-19T10:26:40;14.10;;;10.80;;
71914;SDS011;60387;49.994;14.660;2022-08-19T10:29:13;14.65;;;10.77;;
71914;SDS011;60387;49.994;14.660;2022-08-19T10:31:47;13.40;;;9.93;;
71914;SDS011;60387;49.994;14.660;2022-08-19T10:34:20;14.53;;;9.57;;
71914;SDS011;60387;49.994;14.660;2022-08-19T10:36:54;13.37;;;9.53;;
71914;SDS011;60387;49.994;14.660;2022-08-19T10:39:29;14.00;;;9.45;;
71914;SDS011;60387;49.994;14.660;2022-08-19T10:42:06;12.75;;;9.43;;
71914;SDS011;60387;49.994;14.660;2022-08-19T10:44:40;15.53;;;9.77;;
71914;SDS011;60387;49.994;14.660;2022-08-19T10:47:14;15.07;;;9.45;;
71914;SDS011;60387;49.994;14.660;2022-08-19T10:49:48;13.37;;;9.57;;
71914;SDS011;60387;49.994;14.660;2022-08-19T10:52:22;13.02;;;10.40;;
71914;SDS011;60387;49.994;14.660;2022-08-19T10:54:55;13.53;;;10.10;;
71914;SDS011;60387;49.994;14.660;2022-08-19T10:57:32;12.30;;;9.30;;
71914;SDS011;60387;49.994;14.660;2022-08-19T11:00:05;13.68;;;10.00;;
71914;SDS011;60387;49.994;14.660;2022-08-19T11:02:39;13.45;;;9.88;;
71914;SDS011;60387;49.994;14.660;2022-08-19T11:05:12;13.33;;;8.90;;
71914;SDS011;60387;49.994;14.660;2022-08-19T11:07:46;15.13;;;9.17;;
71914;SDS011;60387;49.994;14.660;2022-08-19T11:10:19;13.57;;;9.40;;
71914;SDS011;60387;49.994;14.660;2022-08-19T11:12:52;13.47;;;9.50;;
71914;SDS011;60387;49.994;14.660;2022-08-19T11:15:26;13.50;;;9.57;;
71914;SDS011;60387;49.994;14.660;2022-08-19T11:17:59;15.03;;;10.10;;
71914;SDS011;60387;49.994;14.660;2022-08-19T11:20:32;13.10;;;9.63;;
71914;SDS011;60387;49.994;14.660;2022-08-19T11:23:06;13.50;;;9.53;;
71914;SDS011;60387;49.994;14.660;2022-08-19T11:25:39;14.70;;;10.07;;
71914;SDS011;60387;49.994;14.660;2022-08-19T11:28:12;15.73;;;10.67;;
71914;SDS011;60387;49.994;14.660;2022-08-19T11:30:46;14.60;;;9.77;;
71914;SDS011;60387;49.994;14.660;2022-08-19T11:33:19;16.03;;;10.33;;
71914;SDS011;60387;49.994;14.660;2022-08-19T11:35:52;13.90;;;10.30;;
71914;SDS011;60387;49.994;14.660;2022-08-19T11:38:26;14.27;;;9.90;;
71914;SDS011;60387;49.994;14.660;2022-08-19T11:41:00;11.60;;;8.63;;
71914;SDS011;60387;49.994;14.660;2022-08-19T11:43:36;12.70;;;8.73;;
71914;SDS011;60387;49.994;14.660;2022-08-19T11:46:11;14.30;;;9.40;;
71914;SDS011;60387;49.994;14.660;2022-08-19T11:48:46;11.98;;;9.15;;
71914;SDS011;60387;49.994;14.660;2022-08-19T11:51:21;15.30;;;10.03;;
71914;SDS011;60387;49.994;14.660;2022-08-19T11:53:56;13.40;;;10.00;;
71914;SDS011;60387;49.994;14.660;2022-08-19T11:56:31;15.25;;;9.90;;
71914;SDS011;60387;49.994;14.660;2022-08-19T11:59:05;12.27;;;9.43;;
71914;SDS011;60387;49.994;14.660;2022-08-19T12:01:39;12.57;;;8.95;;
71914;SDS011;60387;49.994;14.660;2022-08-19T12:04:12;13.63;;;9.67;;
71914;SDS011;60387;49.994;14.660;2022-08-19T12:06:46;12.97;;;9.07;;
71914;SDS011;60387;49.994;14.660;2022-08-19T12:09:19;12.20;;;9.60;;
71914;SDS011;60387;49.994;14.660;2022-08-19T12:11:52;13.23;;;9.87;;
71914;SDS011;60387;49.994;14.660;2022-08-19T12:14:25;12.27;;;9.30;;
71914;SDS011;60387;49.994;14.660;2022-08-19T12:16:59;15.17;;;9.03;;
71914;SDS011;60387;49.994;14.660;2022-08-19T12:19:32;12.50;;;9.47;;
71914;SDS011;60387;49.994;14.660;2022-08-19T12:22:06;12.57;;;9.23;;
71914;SDS011;60387;49.994;14.660;2022-08-19T12:24:39;11.60;;;8.67;;
71914;SDS011;60387;49.994;14.660;2022-08-19T12:27:13;13.03;;;9.40;;
71914;SDS011;60387;49.994;14.660;2022-08-19T12:29:46;13.00;;;9.17;;
71914;SDS011;60387;49.994;14.660;2022-08-19T12:32:19;14.30;;;9.57;;
71914;SDS011;60387;49.994;14.660;2022-08-19T12:34:53;18.17;;;9.93;;
71914;SDS011;60387;49.994;14.660;2022-08-19T12:37:26;14.00;;;9.77;;
71914;SDS011;60387;49.994;14.660;2022-08-19T12:39:59;13.90;;;9.83;;
71914;SDS011;60387;49.994;14.660;2022-08-19T12:42:33;14.30;;;9.63;;
71914;SDS011;60387;49.994;14.660;2022-08-19T12:45:06;13.33;;;9.03;;
71914;SDS011;60387;49.994;14.660;2022-08-19T12:47:40;13.25;;;8.85;;
71914;SDS011;60387;49.994;14.660;2022-08-19T12:50:13;11.73;;;8.70;;
71914;SDS011;60387;49.994;14.660;2022-08-19T12:52:47;12.70;;;8.53;;
71914;SDS011;60387;49.994;14.660;2022-08-19T12:55:21;11.70;;;8.15;;
71914;SDS011;60387;49.994;14.660;2022-08-19T12:57:54;11.57;;;8.57;;
71914;SDS011;60387;49.994;14.660;2022-08-19T13:00:27;12.10;;;9.07;;
71914;SDS011;60387;49.994;14.660;2022-08-19T13:03:01;12.70;;;9.15;;
71914;SDS011;60387;49.994;14.660;2022-08-19T13:05:34;11.00;;;8.30;;
71914;SDS011;60387;49.994;14.660;2022-08-19T13:08:08;10.80;;;8.17;;
71914;SDS011;60387;49.994;14.660;2022-08-19T13:10:41;12.37;;;8.80;;
71914;SDS011;60387;49.994;14.660;2022-08-19T13:13:14;11.60;;;8.13;;
71914;SDS011;60387;49.994;14.660;2022-08-19T13:15:48;10.97;;;7.97;;
71914;SDS011;60387;49.994;14.660;2022-08-19T13:18:21;10.77;;;7.57;;
71914;SDS011;60387;49.994;14.660;2022-08-19T13:20:54;11.93;;;8.17;;
71914;SDS011;60387;49.994;14.660;2022-08-19T13:23:27;10.43;;;7.43;;
71914;SDS011;60387;49.994;14.660;2022-08-19T13:26:02;10.93;;;7.50;;
71914;SDS011;60387;49.994;14.660;2022-08-19T13:28:38;13.15;;;8.18;;
71914;SDS011;60387;49.994;14.660;2022-08-19T13:31:20;12.40;;;8.00;;
71914;SDS011;60387;49.994;14.660;2022-08-19T13:33:54;11.25;;;7.53;;
71914;SDS011;60387;49.994;14.660;2022-08-19T13:36:28;10.53;;;7.43;;
71914;SDS011;60387;49.994;14.660;2022-08-19T13:39:02;11.73;;;7.90;;
71914;SDS011;60387;49.994;14.660;2022-08-19T13:41:36;11.77;;;8.35;;
71914;SDS011;60387;49.994;14.660;2022-08-19T13:44:10;11.65;;;8.70;;
71914;SDS011;60387;49.994;14.660;2022-08-19T13:46:44;11.97;;;8.50;;
71914;SDS011;60387;49.994;14.660;2022-08-19T13:49:18;11.20;;;7.60;;
71914;SDS011;60387;49.994;14.660;2022-08-19T13:51:52;11.68;;;7.68;;
71914;SDS011;60387;49.994;14.660;2022-08-19T13:54:25;11.97;;;7.63;;
71914;SDS011;60387;49.994;14.660;2022-08-19T13:56:58;12.93;;;8.10;;
71914;SDS011;60387;49.994;14.660;2022-08-19T13:59:31;13.27;;;8.60;;
71914;SDS011;60387;49.994;14.660;2022-08-19T14:02:05;11.33;;;8.53;;
71914;SDS011;60387;49.994;14.660;2022-08-19T14:04:38;12.10;;;8.50;;
71914;SDS011;60387;49.994;14.660;2022-08-19T14:07:11;14.20;;;9.27;;
71914;SDS011;60387;49.994;14.660;2022-08-19T14:09:45;16.27;;;9.10;;
71914;SDS011;60387;49.994;14.660;2022-08-19T14:12:19;11.93;;;8.43;;
71914;SDS011;60387;49.994;14.660;2022-08-19T14:14:55;12.15;;;8.57;;
71914;SDS011;60387;49.994;14.660;2022-08-19T14:17:28;12.83;;;9.03;;
71914;SDS011;60387;49.994;14.660;2022-08-19T14:20:02;12.80;;;8.47;;
71914;SDS011;60387;49.994;14.660;2022-08-19T14:22:39;14.73;;;8.48;;
71914;SDS011;60387;49.994;14.660;2022-08-19T14:25:14;11.77;;;8.32;;
71914;SDS011;60387;49.994;14.660;2022-08-19T14:27:53;12.55;;;8.40;;
71914;SDS011;60387;49.994;14.660;2022-08-19T14:30:29;13.13;;;7.93;;
71914;SDS011;60387;49.994;14.660;2022-08-19T14:33:06;13.88;;;8.43;;
71914;SDS011;60387;49.994;14.660;2022-08-19T14:35:40;12.48;;;8.43;;
71914;SDS011;60387;49.994;14.660;2022-08-19T14:38:17;11.90;;;7.80;;
71914;SDS011;60387;49.994;14.660;2022-08-19T14:40:51;12.68;;;7.82;;
71914;SDS011;60387;49.994;14.660;2022-08-19T14:43:24;13.20;;;8.17;;
71914;SDS011;60387;49.994;14.660;2022-08-19T14:45:57;11.93;;;8.40;;
71914;SDS011;60387;49.994;14.660;2022-08-19T14:48:31;12.10;;;8.50;;
71914;SDS011;60387;49.994;14.660;2022-08-19T14:51:05;11.93;;;8.27;;
71914;SDS011;60387;49.994;14.660;2022-08-19T14:53:39;12.18;;;8.40;;
71914;SDS011;60387;49.994;14.660;2022-08-19T14:56:14;17.00;;;8.83;;
71914;SDS011;60387;49.994;14.660;2022-08-19T14:58:48;12.27;;;8.25;;
71914;SDS011;60387;49.994;14.660;2022-08-19T15:01:22;13.00;;;8.70;;
71914;SDS011;60387;49.994;14.660;2022-08-19T15:03:55;14.18;;;9.25;;
71914;SDS011;60387;49.994;14.660;2022-08-19T15:06:29;14.30;;;9.73;;